Accueil
METAR-TAF:

METAR-TAF

Aéroports :

Port-Saïd, Égypte

latitude: 31-16N, longitude: 032-18E, altitude: 6 m

Observation

Le bulletin a été fait il y a 1 heure et 35 minutes, à 05:00 UTC
Vent 5 kt de sud
Température 29°C
Humidité 84%
Pression 1003 hPa
Visibilité 10 km ou plus
pas de nuages en-dessous de 1500 mètres et pas de cumulonimbus.

METAR: HEPS 250500Z 18005KT CAVOK 29/26 Q1003 NOSIG

Heure: 08:35 (06:35 UTC)

Prévision

Le bulletin a été fait il y a 1 heure et 35 minutes, à 05:00 UTC
Prévision valable du 25 à 06 UTC au 26 à 12 UTC
Vent 7 kt de ouest
Visibilité 10 km ou plus
pas de nuages en-dessous de 1500 mètres et pas de cumulonimbus.
Evoluant progressivement
du 25 à 10 UTC au 25 à 12 UTC
Vent 10 kt de nord-ouest

TAF: HEPS 250500Z 2506/2612 26007KT CAVOK BECMG 2510/2512 32010KT

Observations et prévisions météorologiques de plus de 4000 aéroports (messages METAR et TAF).

Les stations disponibles sont représentées par des disques jaunes et rouges sur la carte.

Passer la souris dessus pour voir le nom de la station.

Cliquer dessus pour voir les observations et prévisions météorologiques.

Pour changer de carte: cliquez sur les boutons verts avec une croix noire pour zoomer, sur le bouton vert avec un tiret pour effectuer un zoom arrière, ou sur les flèches vertes pour les cartes adjacentes.


METAR-TAF: